sensor_id;sensor_type;location;lat;lon;timestamp;P1;durP1;ratioP1;P2;durP2;ratioP2
27618;SDS011;15039;50.830;4.730;2023-08-31T00:01:31;1.10;;;1.00;;
27618;SDS011;15039;50.830;4.730;2023-08-31T00:03:58;3.90;;;1.15;;
27618;SDS011;15039;50.830;4.730;2023-08-31T00:06:30;2.47;;;1.33;;
27618;SDS011;15039;50.830;4.730;2023-08-31T00:09:00;1.67;;;1.30;;
27618;SDS011;15039;50.830;4.730;2023-08-31T00:11:52;1.70;;;1.40;;
27618;SDS011;15039;50.830;4.730;2023-08-31T00:14:37;2.80;;;1.13;;
27618;SDS011;15039;50.830;4.730;2023-08-31T00:17:28;1.27;;;1.17;;
27618;SDS011;15039;50.830;4.730;2023-08-31T00:19:58;2.25;;;1.40;;
27618;SDS011;15039;50.830;4.730;2023-08-31T00:22:23;2.58;;;1.52;;
27618;SDS011;15039;50.830;4.730;2023-08-31T00:24:51;2.97;;;1.30;;
27618;SDS011;15039;50.830;4.730;2023-08-31T00:27:18;1.60;;;1.50;;
27618;SDS011;15039;50.830;4.730;2023-08-31T00:29:49;3.42;;;1.20;;
27618;SDS011;15039;50.830;4.730;2023-08-31T00:32:17;2.58;;;1.27;;
27618;SDS011;15039;50.830;4.730;2023-08-31T00:34:45;3.28;;;1.80;;
27618;SDS011;15039;50.830;4.730;2023-08-31T00:37:16;3.15;;;1.50;;
27618;SDS011;15039;50.830;4.730;2023-08-31T00:39:48;1.83;;;1.50;;
27618;SDS011;15039;50.830;4.730;2023-08-31T00:42:16;1.65;;;1.55;;
27618;SDS011;15039;50.830;4.730;2023-08-31T00:44:43;2.53;;;1.73;;
27618;SDS011;15039;50.830;4.730;2023-08-31T00:47:13;1.50;;;1.40;;
27618;SDS011;15039;50.830;4.730;2023-08-31T00:49:39;1.55;;;1.45;;
27618;SDS011;15039;50.830;4.730;2023-08-31T00:52:06;2.00;;;1.60;;
27618;SDS011;15039;50.830;4.730;2023-08-31T00:54:32;3.72;;;1.70;;
27618;SDS011;15039;50.830;4.730;2023-08-31T00:56:59;3.20;;;1.98;;
27618;SDS011;15039;50.830;4.730;2023-08-31T00:59:25;2.38;;;1.65;;
27618;SDS011;15039;50.830;4.730;2023-08-31T01:01:56;2.47;;;1.95;;
27618;SDS011;15039;50.830;4.730;2023-08-31T01:04:32;3.67;;;2.15;;
27618;SDS011;15039;50.830;4.730;2023-08-31T01:15:12;5.03;;;2.42;;
27618;SDS011;15039;50.830;4.730;2023-08-31T01:17:41;2.63;;;2.40;;
27618;SDS011;15039;50.830;4.730;2023-08-31T01:20:12;2.65;;;2.45;;
27618;SDS011;15039;50.830;4.730;2023-08-31T01:25:32;2.92;;;2.40;;
27618;SDS011;15039;50.830;4.730;2023-08-31T01:27:58;3.13;;;2.83;;
27618;SDS011;15039;50.830;4.730;2023-08-31T01:30:24;3.47;;;3.17;;
27618;SDS011;15039;50.830;4.730;2023-08-31T01:32:50;4.75;;;2.97;;
27618;SDS011;15039;50.830;4.730;2023-08-31T01:35:16;4.13;;;2.72;;
27618;SDS011;15039;50.830;4.730;2023-08-31T01:43:06;3.38;;;2.83;;
27618;SDS011;15039;50.830;4.730;2023-08-31T01:45:32;3.80;;;3.13;;
27618;SDS011;15039;50.830;4.730;2023-08-31T01:48:00;3.88;;;3.35;;
27618;SDS011;15039;50.830;4.730;2023-08-31T01:50:26;3.35;;;2.83;;
27618;SDS011;15039;50.830;4.730;2023-08-31T01:52:52;3.20;;;2.88;;
27618;SDS011;15039;50.830;4.730;2023-08-31T01:55:21;3.42;;;3.10;;
27618;SDS011;15039;50.830;4.730;2023-08-31T01:57:47;4.13;;;2.92;;
27618;SDS011;15039;50.830;4.730;2023-08-31T02:00:13;3.75;;;3.40;;
27618;SDS011;15039;50.830;4.730;2023-08-31T02:02:41;4.25;;;3.40;;
27618;SDS011;15039;50.830;4.730;2023-08-31T02:05:07;3.83;;;3.40;;
27618;SDS011;15039;50.830;4.730;2023-08-31T02:07:33;3.58;;;3.28;;
27618;SDS011;15039;50.830;4.730;2023-08-31T02:09:59;5.50;;;3.35;;
27618;SDS011;15039;50.830;4.730;2023-08-31T02:12:25;5.80;;;3.42;;
27618;SDS011;15039;50.830;4.730;2023-08-31T02:14:50;5.25;;;3.40;;
27618;SDS011;15039;50.830;4.730;2023-08-31T02:17:16;4.63;;;3.20;;
27618;SDS011;15039;50.830;4.730;2023-08-31T02:19:42;5.38;;;3.30;;
27618;SDS011;15039;50.830;4.730;2023-08-31T02:22:08;6.05;;;3.60;;
27618;SDS011;15039;50.830;4.730;2023-08-31T02:24:33;4.10;;;3.50;;
27618;SDS011;15039;50.830;4.730;2023-08-31T02:26:59;4.88;;;3.42;;
27618;SDS011;15039;50.830;4.730;2023-08-31T02:29:25;7.53;;;3.63;;
27618;SDS011;15039;50.830;4.730;2023-08-31T02:31:51;4.50;;;3.60;;
27618;SDS011;15039;50.830;4.730;2023-08-31T02:34:16;5.88;;;3.33;;
27618;SDS011;15039;50.830;4.730;2023-08-31T02:36:42;5.05;;;3.38;;
27618;SDS011;15039;50.830;4.730;2023-08-31T02:39:08;4.13;;;3.20;;
27618;SDS011;15039;50.830;4.730;2023-08-31T02:41:34;3.88;;;3.40;;
27618;SDS011;15039;50.830;4.730;2023-08-31T02:43:59;6.43;;;4.32;;
27618;SDS011;15039;50.830;4.730;2023-08-31T02:46:25;5.82;;;3.45;;
27618;SDS011;15039;50.830;4.730;2023-08-31T02:48:52;8.02;;;3.58;;
27618;SDS011;15039;50.830;4.730;2023-08-31T02:51:18;6.13;;;3.60;;
27618;SDS011;15039;50.830;4.730;2023-08-31T02:53:43;6.65;;;3.20;;
27618;SDS011;15039;50.830;4.730;2023-08-31T02:56:09;8.80;;;3.20;;
27618;SDS011;15039;50.830;4.730;2023-08-31T02:58:35;5.68;;;3.85;;
27618;SDS011;15039;50.830;4.730;2023-08-31T03:01:07;5.75;;;3.42;;
27618;SDS011;15039;50.830;4.730;2023-08-31T03:03:38;10.43;;;3.60;;
27618;SDS011;15039;50.830;4.730;2023-08-31T03:06:05;5.95;;;3.38;;
27618;SDS011;15039;50.830;4.730;2023-08-31T03:08:32;4.53;;;2.90;;
27618;SDS011;15039;50.830;4.730;2023-08-31T03:10:58;6.60;;;3.47;;
27618;SDS011;15039;50.830;4.730;2023-08-31T03:13:24;5.72;;;3.70;;
27618;SDS011;15039;50.830;4.730;2023-08-31T03:15:51;6.65;;;3.50;;
27618;SDS011;15039;50.830;4.730;2023-08-31T03:18:17;4.78;;;3.08;;
27618;SDS011;15039;50.830;4.730;2023-08-31T03:20:42;6.68;;;3.35;;
27618;SDS011;15039;50.830;4.730;2023-08-31T03:23:08;4.80;;;3.22;;
27618;SDS011;15039;50.830;4.730;2023-08-31T03:25:35;7.20;;;3.50;;
27618;SDS011;15039;50.830;4.730;2023-08-31T03:28:00;3.47;;;3.17;;
27618;SDS011;15039;50.830;4.730;2023-08-31T03:30:26;5.05;;;3.35;;
27618;SDS011;15039;50.830;4.730;2023-08-31T03:32:51;6.90;;;3.63;;
27618;SDS011;15039;50.830;4.730;2023-08-31T03:35:17;6.15;;;3.22;;
27618;SDS011;15039;50.830;4.730;2023-08-31T03:37:43;4.82;;;3.65;;
27618;SDS011;15039;50.830;4.730;2023-08-31T03:40:12;6.13;;;3.10;;
27618;SDS011;15039;50.830;4.730;2023-08-31T03:42:38;4.70;;;3.30;;
27618;SDS011;15039;50.830;4.730;2023-08-31T03:45:04;5.40;;;3.63;;
27618;SDS011;15039;50.830;4.730;2023-08-31T03:47:30;3.75;;;3.17;;
27618;SDS011;15039;50.830;4.730;2023-08-31T03:49:57;4.97;;;3.17;;
27618;SDS011;15039;50.830;4.730;2023-08-31T03:52:23;6.78;;;3.63;;
27618;SDS011;15039;50.830;4.730;2023-08-31T03:54:49;8.40;;;3.38;;
27618;SDS011;15039;50.830;4.730;2023-08-31T03:57:16;6.82;;;3.30;;
27618;SDS011;15039;50.830;4.730;2023-08-31T03:59:42;6.35;;;2.80;;
27618;SDS011;15039;50.830;4.730;2023-08-31T04:02:07;5.43;;;3.17;;
27618;SDS011;15039;50.830;4.730;2023-08-31T04:04:33;4.95;;;3.00;;
27618;SDS011;15039;50.830;4.730;2023-08-31T04:06:59;8.30;;;3.60;;
27618;SDS011;15039;50.830;4.730;2023-08-31T04:09:25;4.88;;;3.00;;
27618;SDS011;15039;50.830;4.730;2023-08-31T04:11:51;4.13;;;2.70;;
27618;SDS011;15039;50.830;4.730;2023-08-31T04:14:16;5.97;;;3.05;;
27618;SDS011;15039;50.830;4.730;2023-08-31T04:16:43;4.55;;;2.83;;
27618;SDS011;15039;50.830;4.730;2023-08-31T04:19:09;3.42;;;2.65;;
27618;SDS011;15039;50.830;4.730;2023-08-31T04:21:35;4.53;;;2.80;;
27618;SDS011;15039;50.830;4.730;2023-08-31T04:24:02;4.80;;;2.78;;
27618;SDS011;15039;50.830;4.730;2023-08-31T04:26:28;4.88;;;2.80;;
27618;SDS011;15039;50.830;4.730;2023-08-31T04:28:54;3.03;;;2.72;;
27618;SDS011;15039;50.830;4.730;2023-08-31T04:31:20;4.53;;;2.88;;
27618;SDS011;15039;50.830;4.730;2023-08-31T04:33:46;4.50;;;2.75;;
27618;SDS011;15039;50.830;4.730;2023-08-31T04:36:13;4.40;;;2.50;;
27618;SDS011;15039;50.830;4.730;2023-08-31T04:38:41;4.10;;;2.33;;
27618;SDS011;15039;50.830;4.730;2023-08-31T04:41:06;5.43;;;2.72;;
27618;SDS011;15039;50.830;4.730;2023-08-31T04:43:32;4.65;;;2.75;;
27618;SDS011;15039;50.830;4.730;2023-08-31T04:45:57;6.70;;;2.75;;
27618;SDS011;15039;50.830;4.730;2023-08-31T04:48:23;3.50;;;2.92;;
27618;SDS011;15039;50.830;4.730;2023-08-31T04:50:49;4.40;;;2.42;;
27618;SDS011;15039;50.830;4.730;2023-08-31T04:53:14;3.83;;;2.15;;
27618;SDS011;15039;50.830;4.730;2023-08-31T04:55:40;5.40;;;2.38;;
27618;SDS011;15039;50.830;4.730;2023-08-31T04:58:06;6.70;;;2.45;;
27618;SDS011;15039;50.830;4.730;2023-08-31T05:00:31;3.97;;;2.60;;
27618;SDS011;15039;50.830;4.730;2023-08-31T05:02:57;4.38;;;2.75;;
27618;SDS011;15039;50.830;4.730;2023-08-31T05:05:24;3.28;;;2.47;;
27618;SDS011;15039;50.830;4.730;2023-08-31T05:07:51;3.25;;;2.30;;
27618;SDS011;15039;50.830;4.730;2023-08-31T05:10:18;5.57;;;2.70;;
27618;SDS011;15039;50.830;4.730;2023-08-31T05:12:45;3.88;;;2.65;;
27618;SDS011;15039;50.830;4.730;2023-08-31T05:15:11;3.90;;;2.83;;
27618;SDS011;15039;50.830;4.730;2023-08-31T05:17:37;2.97;;;2.67;;
27618;SDS011;15039;50.830;4.730;2023-08-31T05:20:02;2.88;;;2.58;;
27618;SDS011;15039;50.830;4.730;2023-08-31T05:22:29;5.28;;;2.60;;
27618;SDS011;15039;50.830;4.730;2023-08-31T05:24:55;4.78;;;2.92;;
27618;SDS011;15039;50.830;4.730;2023-08-31T05:27:21;4.18;;;2.60;;
27618;SDS011;15039;50.830;4.730;2023-08-31T05:29:47;5.43;;;2.80;;
27618;SDS011;15039;50.830;4.730;2023-08-31T05:32:12;5.30;;;2.97;;
27618;SDS011;15039;50.830;4.730;2023-08-31T05:34:38;3.78;;;2.60;;
27618;SDS011;15039;50.830;4.730;2023-08-31T05:37:04;3.78;;;3.03;;
27618;SDS011;15039;50.830;4.730;2023-08-31T05:39:30;5.13;;;2.97;;
27618;SDS011;15039;50.830;4.730;2023-08-31T05:41:56;7.10;;;2.78;;
27618;SDS011;15039;50.830;4.730;2023-08-31T05:44:22;4.20;;;2.53;;
27618;SDS011;15039;50.830;4.730;2023-08-31T05:46:48;5.18;;;2.70;;
27618;SDS011;15039;50.830;4.730;2023-08-31T05:49:13;4.07;;;2.92;;
27618;SDS011;15039;50.830;4.730;2023-08-31T05:51:39;4.47;;;3.00;;
27618;SDS011;15039;50.830;4.730;2023-08-31T05:54:05;6.30;;;2.80;;
27618;SDS011;15039;50.830;4.730;2023-08-31T05:56:36;5.70;;;2.95;;
27618;SDS011;15039;50.830;4.730;2023-08-31T05:59:06;6.18;;;3.10;;
27618;SDS011;15039;50.830;4.730;2023-08-31T06:01:34;5.53;;;3.30;;
27618;SDS011;15039;50.830;4.730;2023-08-31T06:04:01;5.28;;;2.70;;
27618;SDS011;15039;50.830;4.730;2023-08-31T06:06:28;7.63;;;3.38;;
27618;SDS011;15039;50.830;4.730;2023-08-31T06:08:54;4.70;;;3.00;;
27618;SDS011;15039;50.830;4.730;2023-08-31T06:11:21;5.90;;;2.92;;
27618;SDS011;15039;50.830;4.730;2023-08-31T06:13:47;5.57;;;2.70;;
27618;SDS011;15039;50.830;4.730;2023-08-31T06:16:13;5.97;;;2.88;;
27618;SDS011;15039;50.830;4.730;2023-08-31T06:18:39;6.30;;;3.25;;
27618;SDS011;15039;50.830;4.730;2023-08-31T06:21:05;4.60;;;3.00;;
27618;SDS011;15039;50.830;4.730;2023-08-31T06:23:30;4.88;;;2.83;;
27618;SDS011;15039;50.830;4.730;2023-08-31T06:25:56;5.55;;;3.80;;
27618;SDS011;15039;50.830;4.730;2023-08-31T06:28:23;7.95;;;3.33;;
27618;SDS011;15039;50.830;4.730;2023-08-31T06:30:50;6.43;;;3.28;;
27618;SDS011;15039;50.830;4.730;2023-08-31T06:33:16;6.93;;;3.05;;
27618;SDS011;15039;50.830;4.730;2023-08-31T06:35:45;5.03;;;2.90;;
27618;SDS011;15039;50.830;4.730;2023-08-31T06:38:13;6.10;;;3.22;;
27618;SDS011;15039;50.830;4.730;2023-08-31T06:40:41;7.07;;;2.83;;
27618;SDS011;15039;50.830;4.730;2023-08-31T06:43:09;3.80;;;2.70;;
27618;SDS011;15039;50.830;4.730;2023-08-31T06:45:41;6.85;;;2.40;;
27618;SDS011;15039;50.830;4.730;2023-08-31T06:48:07;7.18;;;2.97;;
27618;SDS011;15039;50.830;4.730;2023-08-31T06:50:33;7.68;;;3.17;;
27618;SDS011;15039;50.830;4.730;2023-08-31T06:53:00;8.52;;;3.28;;
27618;SDS011;15039;50.830;4.730;2023-08-31T06:55:26;7.70;;;3.05;;
27618;SDS011;15039;50.830;4.730;2023-08-31T06:57:52;8.65;;;3.28;;
27618;SDS011;15039;50.830;4.730;2023-08-31T07:00:17;8.07;;;3.30;;
27618;SDS011;15039;50.830;4.730;2023-08-31T07:02:43;6.10;;;2.75;;
27618;SDS011;15039;50.830;4.730;2023-08-31T07:05:10;7.25;;;3.15;;
27618;SDS011;15039;50.830;4.730;2023-08-31T07:07:36;4.28;;;3.00;;
27618;SDS011;15039;50.830;4.730;2023-08-31T07:10:02;5.82;;;2.90;;
27618;SDS011;15039;50.830;4.730;2023-08-31T07:12:30;7.60;;;2.88;;
27618;SDS011;15039;50.830;4.730;2023-08-31T07:14:56;5.57;;;3.22;;
27618;SDS011;15039;50.830;4.730;2023-08-31T07:17:22;6.05;;;2.85;;
27618;SDS011;15039;50.830;4.730;2023-08-31T07:19:48;5.22;;;2.53;;
27618;SDS011;15039;50.830;4.730;2023-08-31T07:22:14;5.60;;;2.58;;
27618;SDS011;15039;50.830;4.730;2023-08-31T07:24:39;6.70;;;3.38;;
27618;SDS011;15039;50.830;4.730;2023-08-31T07:27:05;5.97;;;2.67;;
27618;SDS011;15039;50.830;4.730;2023-08-31T07:29:31;7.03;;;2.95;;
27618;SDS011;15039;50.830;4.730;2023-08-31T07:31:57;9.05;;;2.92;;
27618;SDS011;15039;50.830;4.730;2023-08-31T07:34:23;7.78;;;2.67;;
27618;SDS011;15039;50.830;4.730;2023-08-31T07:36:49;6.45;;;2.63;;
27618;SDS011;15039;50.830;4.730;2023-08-31T07:39:15;5.88;;;2.55;;
27618;SDS011;15039;50.830;4.730;2023-08-31T07:41:44;5.80;;;2.60;;
27618;SDS011;15039;50.830;4.730;2023-08-31T07:44:09;4.22;;;2.45;;
27618;SDS011;15039;50.830;4.730;2023-08-31T07:46:35;5.88;;;2.83;;
27618;SDS011;15039;50.830;4.730;2023-08-31T07:49:02;4.68;;;2.58;;
27618;SDS011;15039;50.830;4.730;2023-08-31T07:51:29;5.22;;;2.42;;
27618;SDS011;15039;50.830;4.730;2023-08-31T07:53:55;5.80;;;2.40;;
27618;SDS011;15039;50.830;4.730;2023-08-31T07:56:21;5.63;;;2.40;;
27618;SDS011;15039;50.830;4.730;2023-08-31T07:58:52;4.60;;;2.67;;
27618;SDS011;15039;50.830;4.730;2023-08-31T08:01:18;6.72;;;2.65;;
27618;SDS011;15039;50.830;4.730;2023-08-31T08:03:43;7.00;;;3.10;;
27618;SDS011;15039;50.830;4.730;2023-08-31T08:06:09;5.25;;;2.50;;
27618;SDS011;15039;50.830;4.730;2023-08-31T08:08:34;6.05;;;2.63;;
27618;SDS011;15039;50.830;4.730;2023-08-31T08:11:03;5.20;;;2.45;;
27618;SDS011;15039;50.830;4.730;2023-08-31T08:13:31;8.77;;;2.53;;
27618;SDS011;15039;50.830;4.730;2023-08-31T08:15:56;6.40;;;2.45;;
27618;SDS011;15039;50.830;4.730;2023-08-31T08:18:22;5.68;;;2.67;;
27618;SDS011;15039;50.830;4.730;2023-08-31T08:20:50;3.85;;;2.17;;
27618;SDS011;15039;50.830;4.730;2023-08-31T08:23:16;6.68;;;2.22;;
27618;SDS011;15039;50.830;4.730;2023-08-31T08:25:42;6.60;;;2.30;;
27618;SDS011;15039;50.830;4.730;2023-08-31T08:28:08;7.05;;;2.20;;
27618;SDS011;15039;50.830;4.730;2023-08-31T08:30:35;5.55;;;2.30;;
27618;SDS011;15039;50.830;4.730;2023-08-31T08:33:01;12.23;;;2.92;;
27618;SDS011;15039;50.830;4.730;2023-08-31T08:35:27;6.75;;;2.20;;
27618;SDS011;15039;50.830;4.730;2023-08-31T08:37:56;6.22;;;2.35;;
27618;SDS011;15039;50.830;4.730;2023-08-31T08:40:22;6.53;;;2.30;;
27618;SDS011;15039;50.830;4.730;2023-08-31T08:42:47;5.38;;;2.47;;
27618;SDS011;15039;50.830;4.730;2023-08-31T08:47:44;8.13;;;2.60;;
27618;SDS011;15039;50.830;4.730;2023-08-31T08:50:11;6.40;;;2.25;;
27618;SDS011;15039;50.830;4.730;2023-08-31T08:52:38;11.73;;;2.70;;
27618;SDS011;15039;50.830;4.730;2023-08-31T08:55:06;8.18;;;2.58;;
27618;SDS011;15039;50.830;4.730;2023-08-31T08:57:33;9.90;;;2.70;;
27618;SDS011;15039;50.830;4.730;2023-08-31T09:00:01;7.22;;;2.42;;
27618;SDS011;15039;50.830;4.730;2023-08-31T09:02:28;4.35;;;2.15;;
27618;SDS011;15039;50.830;4.730;2023-08-31T09:04:54;5.55;;;2.38;;
27618;SDS011;15039;50.830;4.730;2023-08-31T09:07:20;6.10;;;2.80;;
27618;SDS011;15039;50.830;4.730;2023-08-31T09:09:53;4.43;;;2.40;;
27618;SDS011;15039;50.830;4.730;2023-08-31T09:12:23;4.40;;;1.73;;
27618;SDS011;15039;50.830;4.730;2023-08-31T09:17:38;7.95;;;2.47;;
27618;SDS011;15039;50.830;4.730;2023-08-31T09:20:08;6.15;;;2.22;;
27618;SDS011;15039;50.830;4.730;2023-08-31T09:22:35;3.10;;;1.90;;
27618;SDS011;15039;50.830;4.730;2023-08-31T09:25:00;4.70;;;2.40;;
27618;SDS011;15039;50.830;4.730;2023-08-31T09:27:28;4.70;;;1.55;;
27618;SDS011;15039;50.830;4.730;2023-08-31T09:29:57;4.32;;;1.75;;
27618;SDS011;15039;50.830;4.730;2023-08-31T09:32:23;6.93;;;2.30;;
27618;SDS011;15039;50.830;4.730;2023-08-31T09:34:49;6.78;;;1.95;;
27618;SDS011;15039;50.830;4.730;2023-08-31T09:37:18;4.70;;;1.92;;
27618;SDS011;15039;50.830;4.730;2023-08-31T09:39:43;3.42;;;1.77;;
27618;SDS011;15039;50.830;4.730;2023-08-31T09:42:09;3.50;;;1.90;;
27618;SDS011;15039;50.830;4.730;2023-08-31T09:44:39;7.13;;;1.90;;
27618;SDS011;15039;50.830;4.730;2023-08-31T09:47:07;4.75;;;1.85;;
27618;SDS011;15039;50.830;4.730;2023-08-31T09:49:34;3.47;;;1.80;;
27618;SDS011;15039;50.830;4.730;2023-08-31T09:52:01;3.80;;;1.52;;
27618;SDS011;15039;50.830;4.730;2023-08-31T09:54:29;3.80;;;1.63;;
27618;SDS011;15039;50.830;4.730;2023-08-31T09:56:59;5.10;;;1.67;;
27618;SDS011;15039;50.830;4.730;2023-08-31T09:59:27;4.65;;;2.25;;
27618;SDS011;15039;50.830;4.730;2023-08-31T10:01:54;3.72;;;1.67;;
27618;SDS011;15039;50.830;4.730;2023-08-31T10:04:21;3.90;;;2.15;;
27618;SDS011;15039;50.830;4.730;2023-08-31T10:06:48;2.97;;;1.75;;
27618;SDS011;15039;50.830;4.730;2023-08-31T10:09:14;5.53;;;2.03;;
27618;SDS011;15039;50.830;4.730;2023-08-31T10:11:40;2.92;;;1.40;;
27618;SDS011;15039;50.830;4.730;2023-08-31T10:14:08;4.32;;;1.90;;
27618;SDS011;15039;50.830;4.730;2023-08-31T10:16:40;5.32;;;1.95;;
27618;SDS011;15039;50.830;4.730;2023-08-31T10:19:09;5.38;;;1.73;;
27618;SDS011;15039;50.830;4.730;2023-08-31T10:21:35;3.42;;;1.40;;
27618;SDS011;15039;50.830;4.730;2023-08-31T10:24:02;4.20;;;1.58;;
27618;SDS011;15039;50.830;4.730;2023-08-31T10:26:30;5.60;;;1.45;;
27618;SDS011;15039;50.830;4.730;2023-08-31T10:28:57;4.32;;;1.92;;
27618;SDS011;15039;50.830;4.730;2023-08-31T10:31:27;2.60;;;1.25;;
27618;SDS011;15039;50.830;4.730;2023-08-31T10:33:55;7.07;;;1.45;;
27618;SDS011;15039;50.830;4.730;2023-08-31T10:36:34;2.47;;;1.30;;
27618;SDS011;15039;50.830;4.730;2023-08-31T10:39:06;3.47;;;1.55;;
27618;SDS011;15039;50.830;4.730;2023-08-31T10:41:37;2.63;;;1.23;;
27618;SDS011;15039;50.830;4.730;2023-08-31T10:44:17;2.33;;;1.08;;
27618;SDS011;15039;50.830;4.730;2023-08-31T10:46:49;2.72;;;1.10;;
27618;SDS011;15039;50.830;4.730;2023-08-31T10:49:18;4.55;;;1.23;;
27618;SDS011;15039;50.830;4.730;2023-08-31T10:51:53;2.63;;;1.02;;
27618;SDS011;15039;50.830;4.730;2023-08-31T10:54:26;3.20;;;1.30;;
27618;SDS011;15039;50.830;4.730;2023-08-31T11:05:18;4.38;;;1.38;;
27618;SDS011;15039;50.830;4.730;2023-08-31T11:07:48;4.93;;;1.63;;
27618;SDS011;15039;50.830;4.730;2023-08-31T11:10:19;6.55;;;1.33;;
27618;SDS011;15039;50.830;4.730;2023-08-31T11:12:48;3.80;;;1.20;;
27618;SDS011;15039;50.830;4.730;2023-08-31T11:15:20;3.00;;;1.20;;
27618;SDS011;15039;50.830;4.730;2023-08-31T11:17:51;4.45;;;1.17;;
27618;SDS011;15039;50.830;4.730;2023-08-31T11:20:19;5.50;;;1.27;;
27618;SDS011;15039;50.830;4.730;2023-08-31T11:22:47;3.10;;;1.20;;
27618;SDS011;15039;50.830;4.730;2023-08-31T11:25:20;4.15;;;1.30;;
27618;SDS011;15039;50.830;4.730;2023-08-31T11:27:55;4.05;;;1.38;;
27618;SDS011;15039;50.830;4.730;2023-08-31T11:30:24;2.50;;;1.17;;
27618;SDS011;15039;50.830;4.730;2023-08-31T11:32:56;3.05;;;1.30;;
27618;SDS011;15039;50.830;4.730;2023-08-31T11:35:23;3.72;;;1.35;;
27618;SDS011;15039;50.830;4.730;2023-08-31T11:37:50;3.38;;;1.25;;
27618;SDS011;15039;50.830;4.730;2023-08-31T11:40:17;3.40;;;1.35;;
27618;SDS011;15039;50.830;4.730;2023-08-31T11:42:43;4.68;;;1.40;;
27618;SDS011;15039;50.830;4.730;2023-08-31T11:45:11;2.20;;;1.05;;
27618;SDS011;15039;50.830;4.730;2023-08-31T11:47:39;3.55;;;1.35;;
27618;SDS011;15039;50.830;4.730;2023-08-31T11:50:06;3.15;;;1.38;;
27618;SDS011;15039;50.830;4.730;2023-08-31T11:52:33;4.15;;;1.35;;
27618;SDS011;15039;50.830;4.730;2023-08-31T11:55:00;3.60;;;1.40;;
27618;SDS011;15039;50.830;4.730;2023-08-31T11:57:26;3.80;;;1.40;;
27618;SDS011;15039;50.830;4.730;2023-08-31T11:59:53;2.92;;;1.48;;
27618;SDS011;15039;50.830;4.730;2023-08-31T12:02:20;2.70;;;1.10;;
27618;SDS011;15039;50.830;4.730;2023-08-31T12:04:46;2.80;;;1.20;;
27618;SDS011;15039;50.830;4.730;2023-08-31T12:07:21;4.03;;;1.17;;
27618;SDS011;15039;50.830;4.730;2023-08-31T12:09:47;3.83;;;1.30;;
27618;SDS011;15039;50.830;4.730;2023-08-31T12:12:13;5.20;;;1.20;;
27618;SDS011;15039;50.830;4.730;2023-08-31T12:14:40;4.53;;;1.20;;
27618;SDS011;15039;50.830;4.730;2023-08-31T12:17:07;3.85;;;1.13;;
27618;SDS011;15039;50.830;4.730;2023-08-31T12:19:35;1.13;;;0.73;;
27618;SDS011;15039;50.830;4.730;2023-08-31T12:22:02;1.73;;;0.90;;
27618;SDS011;15039;50.830;4.730;2023-08-31T12:24:29;3.50;;;1.42;;
27618;SDS011;15039;50.830;4.730;2023-08-31T12:26:55;2.92;;;1.40;;
27618;SDS011;15039;50.830;4.730;2023-08-31T12:29:21;5.85;;;1.45;;
27618;SDS011;15039;50.830;4.730;2023-08-31T12:31:47;4.28;;;1.33;;
27618;SDS011;15039;50.830;4.730;2023-08-31T12:34:13;4.03;;;1.70;;
27618;SDS011;15039;50.830;4.730;2023-08-31T12:36:38;3.35;;;1.00;;
27618;SDS011;15039;50.830;4.730;2023-08-31T12:39:07;3.30;;;0.90;;
27618;SDS011;15039;50.830;4.730;2023-08-31T12:41:38;5.85;;;1.42;;
27618;SDS011;15039;50.830;4.730;2023-08-31T12:44:05;2.38;;;1.05;;
27618;SDS011;15039;50.830;4.730;2023-08-31T12:46:31;2.88;;;1.08;;
27618;SDS011;15039;50.830;4.730;2023-08-31T12:48:58;5.15;;;0.90;;
27618;SDS011;15039;50.830;4.730;2023-08-31T12:51:30;4.70;;;1.38;;
27618;SDS011;15039;50.830;4.730;2023-08-31T12:54:03;3.88;;;1.48;;
27618;SDS011;15039;50.830;4.730;2023-08-31T12:56:29;2.25;;;1.05;;
27618;SDS011;15039;50.830;4.730;2023-08-31T12:58:55;1.90;;;1.17;;
27618;SDS011;15039;50.830;4.730;2023-08-31T13:01:21;2.60;;;0.90;;
27618;SDS011;15039;50.830;4.730;2023-08-31T13:03:48;1.60;;;1.00;;
27618;SDS011;15039;50.830;4.730;2023-08-31T13:06:15;2.40;;;1.15;;
27618;SDS011;15039;50.830;4.730;2023-08-31T13:08:42;3.28;;;1.02;;
27618;SDS011;15039;50.830;4.730;2023-08-31T13:11:09;2.25;;;1.15;;
27618;SDS011;15039;50.830;4.730;2023-08-31T13:13:36;4.32;;;1.40;;
27618;SDS011;15039;50.830;4.730;2023-08-31T13:16:03;3.33;;;0.88;;
27618;SDS011;15039;50.830;4.730;2023-08-31T13:18:30;2.65;;;1.00;;
27618;SDS011;15039;50.830;4.730;2023-08-31T13:20:55;2.45;;;0.93;;
27618;SDS011;15039;50.830;4.730;2023-08-31T13:23:21;2.58;;;0.90;;
27618;SDS011;15039;50.830;4.730;2023-08-31T13:25:49;1.75;;;1.00;;
27618;SDS011;15039;50.830;4.730;2023-08-31T13:28:16;2.75;;;1.10;;
27618;SDS011;15039;50.830;4.730;2023-08-31T13:30:42;1.55;;;0.80;;
27618;SDS011;15039;50.830;4.730;2023-08-31T13:33:07;2.95;;;1.00;;
27618;SDS011;15039;50.830;4.730;2023-08-31T13:35:33;1.35;;;1.00;;
27618;SDS011;15039;50.830;4.730;2023-08-31T13:38:00;2.30;;;0.90;;
27618;SDS011;15039;50.830;4.730;2023-08-31T13:40:27;2.55;;;0.85;;
27618;SDS011;15039;50.830;4.730;2023-08-31T13:42:57;2.13;;;1.05;;
27618;SDS011;15039;50.830;4.730;2023-08-31T13:45:27;3.50;;;1.20;;
27618;SDS011;15039;50.830;4.730;2023-08-31T13:47:55;1.63;;;0.88;;
27618;SDS011;15039;50.830;4.730;2023-08-31T13:50:21;2.70;;;0.90;;
27618;SDS011;15039;50.830;4.730;2023-08-31T13:52:47;2.22;;;0.98;;
27618;SDS011;15039;50.830;4.730;2023-08-31T13:55:13;4.07;;;1.13;;
27618;SDS011;15039;50.830;4.730;2023-08-31T13:57:41;3.20;;;1.00;;
27618;SDS011;15039;50.830;4.730;2023-08-31T14:00:07;2.90;;;1.02;;
27618;SDS011;15039;50.830;4.730;2023-08-31T14:02:35;1.65;;;1.00;;
27618;SDS011;15039;50.830;4.730;2023-08-31T14:05:03;1.80;;;0.93;;
27618;SDS011;15039;50.830;4.730;2023-08-31T14:07:33;2.25;;;1.20;;
27618;SDS011;15039;50.830;4.730;2023-08-31T14:09:59;2.45;;;1.05;;
27618;SDS011;15039;50.830;4.730;2023-08-31T14:12:25;2.17;;;0.93;;
27618;SDS011;15039;50.830;4.730;2023-08-31T14:14:51;4.13;;;1.25;;
27618;SDS011;15039;50.830;4.730;2023-08-31T14:17:17;4.88;;;1.20;;
27618;SDS011;15039;50.830;4.730;2023-08-31T14:19:45;3.28;;;1.10;;
27618;SDS011;15039;50.830;4.730;2023-08-31T14:22:12;3.55;;;1.77;;
27618;SDS011;15039;50.830;4.730;2023-08-31T14:24:37;4.70;;;1.60;;
27618;SDS011;15039;50.830;4.730;2023-08-31T14:27:04;3.95;;;1.38;;
27618;SDS011;15039;50.830;4.730;2023-08-31T14:29:34;2.80;;;1.20;;
27618;SDS011;15039;50.830;4.730;2023-08-31T14:32:01;2.25;;;1.38;;
27618;SDS011;15039;50.830;4.730;2023-08-31T14:34:28;5.30;;;1.35;;
27618;SDS011;15039;50.830;4.730;2023-08-31T14:36:57;3.28;;;1.05;;
27618;SDS011;15039;50.830;4.730;2023-08-31T14:41:54;5.25;;;1.60;;
27618;SDS011;15039;50.830;4.730;2023-08-31T14:44:22;4.18;;;1.60;;
27618;SDS011;15039;50.830;4.730;2023-08-31T14:46:49;5.50;;;1.40;;
27618;SDS011;15039;50.830;4.730;2023-08-31T14:49:15;5.47;;;1.30;;
27618;SDS011;15039;50.830;4.730;2023-08-31T14:51:40;4.45;;;1.52;;
27618;SDS011;15039;50.830;4.730;2023-08-31T14:54:07;4.78;;;1.90;;
27618;SDS011;15039;50.830;4.730;2023-08-31T14:56:33;2.80;;;1.25;;
27618;SDS011;15039;50.830;4.730;2023-08-31T14:58:59;3.53;;;1.58;;
27618;SDS011;15039;50.830;4.730;2023-08-31T15:01:25;2.97;;;1.15;;
27618;SDS011;15039;50.830;4.730;2023-08-31T15:03:50;3.00;;;1.60;;
27618;SDS011;15039;50.830;4.730;2023-08-31T15:06:16;3.03;;;1.42;;
27618;SDS011;15039;50.830;4.730;2023-08-31T15:08:42;3.53;;;1.40;;
27618;SDS011;15039;50.830;4.730;2023-08-31T15:11:08;3.60;;;1.58;;
27618;SDS011;15039;50.830;4.730;2023-08-31T15:13:35;2.60;;;1.40;;
27618;SDS011;15039;50.830;4.730;2023-08-31T15:16:01;6.10;;;1.60;;
27618;SDS011;15039;50.830;4.730;2023-08-31T15:18:28;4.60;;;1.67;;
27618;SDS011;15039;50.830;4.730;2023-08-31T15:20:57;3.58;;;1.55;;